createdAt,value
2024-04-22T00:00:58.626Z,3.40
2024-04-22T00:03:25.504Z,3.47
2024-04-22T00:05:55.822Z,3.43
2024-04-22T00:08:22.495Z,3.43
2024-04-22T00:11:02.738Z,3.46
2024-04-22T00:13:31.067Z,3.48
2024-04-22T00:15:58.906Z,3.59
2024-04-22T00:18:25.525Z,3.58
2024-04-22T00:20:52.170Z,3.74
2024-04-22T00:23:18.850Z,3.76
2024-04-22T00:25:45.422Z,3.73
2024-04-22T00:28:12.009Z,3.61
2024-04-22T00:30:38.564Z,3.56
2024-04-22T00:33:05.608Z,3.53
2024-04-22T00:35:33.099Z,3.51
2024-04-22T00:37:59.618Z,3.39
2024-04-22T00:40:26.212Z,3.33
2024-04-22T00:42:52.911Z,3.25
2024-04-22T00:45:19.472Z,3.44
2024-04-22T00:47:46.418Z,3.51
2024-04-22T00:50:14.593Z,3.56
2024-04-22T00:52:42.560Z,3.60
2024-04-22T00:55:10.089Z,3.52
2024-04-22T00:57:39.812Z,3.55
2024-04-22T01:00:07.844Z,3.46
2024-04-22T01:02:34.885Z,3.32
2024-04-22T01:05:02.345Z,3.22
2024-04-22T01:07:28.990Z,3.04
2024-04-22T01:09:55.689Z,3.08
2024-04-22T01:12:22.234Z,3.08
2024-04-22T01:14:48.887Z,2.93
2024-04-22T01:17:15.401Z,2.84
2024-04-22T01:19:42.076Z,2.80
2024-04-22T01:22:09.227Z,2.61
2024-04-22T01:24:36.156Z,2.77
2024-04-22T01:27:06.805Z,2.82
2024-04-22T01:29:33.680Z,2.70
2024-04-22T01:32:00.673Z,2.86
2024-04-22T01:34:27.201Z,2.63
2024-04-22T01:36:53.806Z,2.67
2024-04-22T01:39:20.351Z,2.67
2024-04-22T01:41:46.916Z,2.77
2024-04-22T01:44:13.430Z,2.79
2024-04-22T01:46:40.064Z,2.90
2024-04-22T01:49:06.699Z,2.80
2024-04-22T01:51:33.293Z,2.72
2024-04-22T01:53:59.810Z,2.70
2024-04-22T01:56:26.717Z,2.71
2024-04-22T01:58:53.588Z,2.75
2024-04-22T02:01:20.217Z,2.72
2024-04-22T02:03:46.953Z,2.58
2024-04-22T02:06:13.523Z,2.63
2024-04-22T02:08:40.035Z,2.67
2024-04-22T02:11:06.927Z,2.57
2024-04-22T02:13:33.596Z,2.63
2024-04-22T02:16:00.183Z,2.77
2024-04-22T02:18:26.756Z,2.82
2024-04-22T02:20:53.276Z,2.68
2024-04-22T02:23:19.840Z,2.73
2024-04-22T02:25:48.175Z,2.62
2024-04-22T02:28:14.888Z,2.61
2024-04-22T02:30:41.452Z,2.63
2024-04-22T02:33:09.612Z,2.64
2024-04-22T02:35:36.535Z,2.71
2024-04-22T02:38:03.709Z,2.52
2024-04-22T02:40:30.388Z,2.53
2024-04-22T02:42:56.932Z,2.59
2024-04-22T02:45:23.701Z,2.57
2024-04-22T02:47:50.377Z,2.71
2024-04-22T02:50:16.995Z,2.69
2024-04-22T02:52:43.667Z,2.59
2024-04-22T02:55:10.813Z,2.71
2024-04-22T02:57:37.431Z,2.68
2024-04-22T03:00:05.847Z,2.78
2024-04-22T03:02:32.420Z,2.91
2024-04-22T03:04:59.116Z,3.00
2024-04-22T03:07:27.359Z,2.92
2024-04-22T03:09:53.967Z,2.95
2024-04-22T03:12:20.462Z,2.93
2024-04-22T03:14:47.015Z,3.09
2024-04-22T03:17:13.557Z,2.93
2024-04-22T03:19:40.184Z,3.00
2024-04-22T03:22:06.768Z,3.00
2024-04-22T03:24:33.365Z,3.12
2024-04-22T03:26:59.933Z,3.01
2024-04-22T03:29:26.420Z,3.00
2024-04-22T03:31:52.984Z,3.10
2024-04-22T03:34:19.579Z,3.02
2024-04-22T03:36:46.135Z,3.04
2024-04-22T03:39:12.668Z,2.93
2024-04-22T03:41:39.261Z,2.98
2024-04-22T03:44:05.751Z,3.02
2024-04-22T03:46:51.722Z,3.01
2024-04-22T03:49:37.005Z,3.02
2024-04-22T03:52:03.842Z,2.86
2024-04-22T03:54:30.516Z,2.84
2024-04-22T03:56:57.114Z,2.68
2024-04-22T03:59:23.832Z,2.67
2024-04-22T04:01:50.330Z,2.85
2024-04-22T04:04:17.097Z,2.80
2024-04-22T04:06:43.850Z,2.97
2024-04-22T04:09:10.414Z,3.05
2024-04-22T04:11:41.016Z,2.94
2024-04-22T04:14:08.543Z,3.05
2024-04-22T04:16:35.443Z,3.10
2024-04-22T04:19:02.172Z,2.94
2024-04-22T04:21:28.711Z,3.04
2024-04-22T04:23:55.211Z,3.18
2024-04-22T04:26:21.959Z,3.25
2024-04-22T04:28:49.407Z,3.21
2024-04-22T04:31:16.686Z,3.07
2024-04-22T04:33:43.452Z,3.12
2024-04-22T04:36:10.724Z,3.00
2024-04-22T04:38:38.480Z,3.14
2024-04-22T04:41:05.149Z,3.25
2024-04-22T04:43:32.012Z,3.17
2024-04-22T04:45:59.332Z,3.22
2024-04-22T04:48:26.341Z,3.38
2024-04-22T04:50:53.166Z,3.40
2024-04-22T04:53:21.434Z,3.37
2024-04-22T04:55:49.181Z,3.31
2024-04-22T04:58:16.660Z,3.43
2024-04-22T05:00:43.378Z,3.47
2024-04-22T05:03:10.417Z,3.41
2024-04-22T05:05:37.083Z,3.48
2024-04-22T05:08:05.015Z,3.46
2024-04-22T05:10:31.889Z,3.39
2024-04-22T05:12:58.558Z,3.49
2024-04-22T05:15:25.098Z,3.54
2024-04-22T05:17:51.878Z,3.71
2024-04-22T05:20:18.587Z,3.72
2024-04-22T05:22:45.255Z,3.56
2024-04-22T05:25:11.879Z,3.64
2024-04-22T05:27:38.420Z,3.81
2024-04-22T05:30:05.318Z,3.71
2024-04-22T05:32:33.484Z,3.88
2024-04-22T05:35:18.704Z,3.89
2024-04-22T05:37:45.254Z,3.80
2024-04-22T05:40:11.844Z,3.95
2024-04-22T05:42:39.216Z,4.01
2024-04-22T05:45:06.095Z,3.85
2024-04-22T05:47:32.760Z,3.92
2024-04-22T05:50:01.047Z,4.03
2024-04-22T05:52:28.894Z,4.11
2024-04-22T05:54:55.581Z,4.00
2024-04-22T05:57:22.323Z,3.98
2024-04-22T05:59:49.029Z,4.07
2024-04-22T06:02:15.929Z,4.14
2024-04-22T06:04:42.504Z,4.28
2024-04-22T06:07:09.265Z,4.39
2024-04-22T06:09:36.114Z,4.41
2024-04-22T06:12:15.031Z,4.33
2024-04-22T06:14:45.656Z,4.38
2024-04-22T06:17:12.299Z,4.40
2024-04-22T06:19:39.002Z,4.44
2024-04-22T06:22:05.778Z,4.37
2024-04-22T06:24:33.180Z,4.44
2024-04-22T06:26:59.769Z,4.46
2024-04-22T06:29:26.340Z,4.54
2024-04-22T06:31:52.946Z,4.48
2024-04-22T06:34:19.626Z,4.64
2024-04-22T06:36:46.125Z,4.54
2024-04-22T06:39:12.664Z,4.78
2024-04-22T06:41:39.319Z,4.90
2024-04-22T06:44:06.262Z,4.99
2024-04-22T06:46:33.658Z,5.26
2024-04-22T06:49:00.496Z,5.11
2024-04-22T06:51:27.285Z,5.08
2024-04-22T06:53:53.891Z,5.07
2024-04-22T06:56:20.506Z,5.20
2024-04-22T06:58:47.161Z,5.43
2024-04-22T07:01:23.913Z,5.59
2024-04-22T07:03:59.103Z,5.86
2024-04-22T07:06:26.726Z,6.08
2024-04-22T07:08:53.601Z,6.31
2024-04-22T07:11:20.430Z,6.69
2024-04-22T07:13:47.266Z,6.65
2024-04-22T07:16:15.301Z,6.81
2024-04-22T07:18:42.109Z,6.78
2024-04-22T07:21:08.657Z,6.80
2024-04-22T07:23:35.319Z,6.84
2024-04-22T07:26:05.524Z,6.82
2024-04-22T07:28:32.770Z,6.93
2024-04-22T07:30:59.698Z,7.31
2024-04-22T07:33:30.834Z,7.46
2024-04-22T07:36:09.994Z,7.64
2024-04-22T07:38:37.739Z,7.75
2024-04-22T07:41:04.487Z,7.75
2024-04-22T07:43:31.091Z,7.93
2024-04-22T07:45:57.638Z,8.24
2024-04-22T07:48:24.221Z,8.18
2024-04-22T07:50:50.839Z,8.04
2024-04-22T07:53:17.660Z,8.07
2024-04-22T07:55:44.524Z,8.32
2024-04-22T07:58:11.570Z,8.89
2024-04-22T08:00:38.568Z,9.58
2024-04-22T08:03:05.534Z,9.91
2024-04-22T08:05:32.746Z,10.09
2024-04-22T08:08:00.854Z,10.23
2024-04-22T08:10:29.194Z,10.11
2024-04-22T08:12:55.884Z,10.19
2024-04-22T08:15:22.430Z,10.62
2024-04-22T08:17:49.122Z,10.58
2024-04-22T08:20:15.832Z,10.78
2024-04-22T08:22:42.734Z,10.91
2024-04-22T08:25:09.429Z,10.95
2024-04-22T08:27:36.023Z,10.83
2024-04-22T08:30:02.722Z,10.28
2024-04-22T08:32:29.497Z,10.15
2024-04-22T08:34:56.539Z,10.56
2024-04-22T08:37:23.155Z,10.48
2024-04-22T08:39:49.675Z,10.99
2024-04-22T08:42:16.683Z,10.54
2024-04-22T08:44:43.246Z,10.42
2024-04-22T08:47:09.862Z,10.90
2024-04-22T08:49:36.497Z,10.50
2024-04-22T08:52:04.192Z,10.82
2024-04-22T08:54:34.699Z,10.54
2024-04-22T08:57:01.451Z,10.41
2024-04-22T08:59:37.362Z,10.11
2024-04-22T09:02:06.826Z,10.27
2024-04-22T09:04:33.795Z,10.15
2024-04-22T09:07:04.029Z,9.66
2024-04-22T09:09:41.872Z,9.50
2024-04-22T09:12:18.651Z,9.47
2024-04-22T09:14:45.864Z,9.12
2024-04-22T09:17:17.661Z,8.59
2024-04-22T09:19:46.560Z,7.94
2024-04-22T09:22:15.211Z,8.05
2024-04-22T09:24:42.053Z,8.01
2024-04-22T09:27:08.695Z,7.81
2024-04-22T09:29:41.881Z,7.73
2024-04-22T09:32:16.185Z,7.87
2024-04-22T09:34:43.926Z,7.77
2024-04-22T09:37:11.190Z,7.73
2024-04-22T09:39:42.359Z,7.60
2024-04-22T09:42:13.944Z,7.48
2024-04-22T09:44:42.860Z,7.69
2024-04-22T09:47:10.850Z,7.67
2024-04-22T09:49:39.346Z,7.39
2024-04-22T09:52:06.324Z,7.52
2024-04-22T09:54:33.341Z,7.37
2024-04-22T09:57:01.416Z,7.24
2024-04-22T09:59:28.246Z,7.65
2024-04-22T10:01:55.221Z,7.61
2024-04-22T10:04:22.226Z,7.34
2024-04-22T10:06:51.245Z,7.86
2024-04-22T10:09:18.157Z,8.00
2024-04-22T10:11:45.681Z,8.40
2024-04-22T10:14:15.571Z,8.87
2024-04-22T10:16:53.782Z,8.77
2024-04-22T10:19:20.858Z,9.11
2024-04-22T10:21:51.227Z,9.21
2024-04-22T10:24:38.955Z,9.27
2024-04-22T10:27:11.892Z,9.35
2024-04-22T10:29:41.824Z,9.51
2024-04-22T10:32:08.699Z,9.88
2024-04-22T10:34:39.702Z,9.72
2024-04-22T10:37:06.509Z,9.64
2024-04-22T10:39:33.019Z,9.59
2024-04-22T10:41:59.693Z,9.44
2024-04-22T10:44:26.534Z,9.00
2024-04-22T10:46:55.469Z,8.68
2024-04-22T10:49:22.381Z,8.69
2024-04-22T10:51:50.691Z,8.51
2024-04-22T10:54:17.306Z,8.54
2024-04-22T10:56:43.878Z,8.22
2024-04-22T10:59:10.552Z,8.06
2024-04-22T11:01:37.955Z,7.83
2024-04-22T11:04:04.919Z,7.54
2024-04-22T11:06:31.469Z,7.47
2024-04-22T11:08:58.786Z,7.27
2024-04-22T11:11:25.821Z,7.14
2024-04-22T11:13:52.570Z,7.14
2024-04-22T11:16:20.880Z,7.14
2024-04-22T11:18:48.826Z,6.94
2024-04-22T11:21:15.525Z,7.03
2024-04-22T11:23:42.185Z,7.16
2024-04-22T11:26:10.875Z,7.16
2024-04-22T11:28:37.576Z,7.33
2024-04-22T11:31:04.311Z,7.43
2024-04-22T11:33:30.861Z,7.41
2024-04-22T11:35:58.764Z,7.45
2024-04-22T11:38:28.978Z,7.43
2024-04-22T11:40:55.944Z,7.34
2024-04-22T11:43:23.150Z,7.37
2024-04-22T11:45:52.379Z,7.48
2024-04-22T11:48:19.207Z,7.64
2024-04-22T11:50:46.068Z,7.69
2024-04-22T11:53:18.324Z,7.56
2024-04-22T11:55:54.189Z,8.03
2024-04-22T11:58:21.192Z,7.98
2024-04-22T12:00:49.256Z,7.99
2024-04-22T12:03:15.951Z,7.92
2024-04-22T12:05:42.753Z,8.41
2024-04-22T12:08:09.834Z,8.34
2024-04-22T12:10:36.539Z,8.41
2024-04-22T12:13:03.085Z,8.91
2024-04-22T12:15:29.712Z,9.32
2024-04-22T12:17:56.328Z,10.13
2024-04-22T12:20:23.117Z,10.04
2024-04-22T12:22:50.019Z,9.82
2024-04-22T12:25:16.693Z,10.00
2024-04-22T12:27:43.253Z,9.82
2024-04-22T12:30:10.720Z,9.51
2024-04-22T12:32:39.261Z,9.83
2024-04-22T12:35:06.030Z,9.45
2024-04-22T12:37:32.754Z,9.61
2024-04-22T12:39:59.438Z,9.79
2024-04-22T12:42:25.956Z,9.91
2024-04-22T12:44:52.552Z,10.15
2024-04-22T12:47:37.839Z,10.06
2024-04-22T12:50:23.051Z,10.65
2024-04-22T12:52:50.071Z,10.64
2024-04-22T12:55:16.979Z,9.87
2024-04-22T12:57:43.561Z,9.72
2024-04-22T13:00:14.151Z,9.82
2024-04-22T13:02:41.112Z,9.57
2024-04-22T13:05:08.112Z,9.29
2024-04-22T13:07:34.982Z,9.06
2024-04-22T13:10:01.611Z,8.88
2024-04-22T13:12:28.452Z,8.25
2024-04-22T13:14:54.972Z,7.95
2024-04-22T13:17:21.668Z,7.77
2024-04-22T13:19:48.325Z,7.41
2024-04-22T13:22:15.129Z,6.95
2024-04-22T13:24:41.748Z,7.13
2024-04-22T13:27:10.932Z,7.26
2024-04-22T13:29:37.474Z,7.01
2024-04-22T13:32:04.731Z,7.00
2024-04-22T13:34:31.299Z,6.89
2024-04-22T13:36:58.030Z,6.80
2024-04-22T13:39:25.878Z,7.07
2024-04-22T13:41:55.959Z,7.01
2024-04-22T13:44:22.544Z,6.92
2024-04-22T13:46:49.173Z,7.22
2024-04-22T13:49:15.923Z,7.18
2024-04-22T13:51:42.711Z,6.96
2024-04-22T13:54:09.383Z,6.75
2024-04-22T13:56:36.265Z,6.08
2024-04-22T13:59:02.957Z,6.03
2024-04-22T14:01:30.290Z,5.95
2024-04-22T14:03:57.318Z,6.27
2024-04-22T14:06:23.851Z,6.24
2024-04-22T14:08:51.427Z,5.71
2024-04-22T14:11:18.104Z,5.64
2024-04-22T14:13:44.923Z,5.59
2024-04-22T14:16:11.456Z,5.89
2024-04-22T14:18:38.402Z,5.81
2024-04-22T14:21:05.157Z,6.16
2024-04-22T14:23:32.199Z,6.18
2024-04-22T14:26:00.372Z,6.22
2024-04-22T14:28:28.466Z,6.70
2024-04-22T14:30:55.818Z,6.83
2024-04-22T14:33:23.801Z,7.06
2024-04-22T14:35:50.975Z,7.18
2024-04-22T14:38:17.639Z,7.60
2024-04-22T14:40:44.222Z,7.34
2024-04-22T14:43:10.744Z,7.37
2024-04-22T14:45:37.681Z,7.35
2024-04-22T14:48:04.849Z,7.65
2024-04-22T14:50:31.373Z,7.47
2024-04-22T14:52:59.491Z,7.91
2024-04-22T14:55:26.923Z,8.32
2024-04-22T14:57:53.458Z,8.66
2024-04-22T15:00:20.101Z,8.58
2024-04-22T15:02:46.823Z,8.66
2024-04-22T15:05:13.469Z,8.66
2024-04-22T15:07:40.117Z,8.33
2024-04-22T15:10:07.005Z,8.46
2024-04-22T15:12:33.547Z,8.42
2024-04-22T15:15:00.167Z,8.30
2024-04-22T15:17:26.919Z,8.41
2024-04-22T15:19:53.563Z,8.62
2024-04-22T15:22:20.154Z,7.95
2024-04-22T15:24:46.726Z,7.98
2024-04-22T15:27:13.261Z,8.28
2024-04-22T15:29:39.912Z,8.34
2024-04-22T15:32:07.024Z,8.32
2024-04-22T15:34:33.641Z,8.09
2024-04-22T15:37:02.237Z,7.89
2024-04-22T15:39:30.050Z,8.07
2024-04-22T15:41:56.661Z,8.13
2024-04-22T15:44:23.160Z,8.08
2024-04-22T15:46:49.794Z,8.08
2024-04-22T15:49:16.418Z,8.19
2024-04-22T15:51:42.986Z,8.26
2024-04-22T15:54:09.943Z,8.04
2024-04-22T15:56:37.815Z,8.07
2024-04-22T15:59:06.083Z,8.24
2024-04-22T16:01:32.909Z,7.99
2024-04-22T16:03:59.523Z,7.82
2024-04-22T16:06:26.126Z,7.83
2024-04-22T16:08:52.704Z,7.99
2024-04-22T16:11:19.358Z,7.85
2024-04-22T16:13:45.953Z,8.01
2024-04-22T16:16:12.533Z,8.05
2024-04-22T16:18:39.090Z,8.29
2024-04-22T16:21:11.945Z,8.20
2024-04-22T16:23:42.300Z,8.20
2024-04-22T16:26:08.844Z,8.34
2024-04-22T16:28:35.412Z,8.28
2024-04-22T16:31:02.102Z,8.36
2024-04-22T16:33:29.362Z,8.25
2024-04-22T16:35:55.940Z,8.04
2024-04-22T16:38:22.460Z,7.71
2024-04-22T16:40:49.017Z,7.64
2024-04-22T16:43:16.147Z,7.53
2024-04-22T16:45:42.992Z,7.61
2024-04-22T16:48:09.606Z,7.31
2024-04-22T16:50:36.429Z,7.45
2024-04-22T16:53:03.654Z,7.21
2024-04-22T16:55:30.253Z,7.20
2024-04-22T16:57:56.866Z,7.22
2024-04-22T17:00:23.401Z,7.28
2024-04-22T17:02:49.992Z,7.05
2024-04-22T17:05:19.613Z,7.00
2024-04-22T17:07:47.467Z,7.02
2024-04-22T17:10:14.157Z,7.05
2024-04-22T17:12:40.732Z,6.84
2024-04-22T17:15:07.454Z,6.92
2024-04-22T17:17:36.916Z,6.80
2024-04-22T17:20:03.990Z,6.94
2024-04-22T17:22:30.636Z,6.89
2024-04-22T17:24:57.324Z,6.75
2024-04-22T17:27:24.163Z,6.81
2024-04-22T17:29:51.433Z,6.74
2024-04-22T17:32:18.001Z,6.74
2024-04-22T17:34:44.650Z,6.83
2024-04-22T17:37:12.637Z,6.76
2024-04-22T17:39:41.570Z,6.81
2024-04-22T17:42:09.345Z,6.77
2024-04-22T17:44:35.813Z,6.67
2024-04-22T17:47:02.485Z,6.54
2024-04-22T17:49:29.086Z,6.66
2024-04-22T17:51:55.624Z,6.52
2024-04-22T17:54:23.460Z,6.58
2024-04-22T17:56:56.543Z,6.63
2024-04-22T17:59:28.609Z,6.64
2024-04-22T18:01:55.219Z,6.48
2024-04-22T18:04:21.930Z,6.46
2024-04-22T18:06:48.604Z,6.32
2024-04-22T18:09:15.082Z,6.38
2024-04-22T18:11:42.937Z,6.55
2024-04-22T18:14:10.144Z,6.36
2024-04-22T18:16:38.923Z,6.41
2024-04-22T18:19:05.497Z,6.28
2024-04-22T18:21:31.990Z,6.35
2024-04-22T18:23:58.520Z,6.36
2024-04-22T18:26:25.095Z,6.32
2024-04-22T18:28:51.832Z,6.22
2024-04-22T18:31:21.702Z,6.21
2024-04-22T18:33:48.411Z,6.17
2024-04-22T18:36:14.982Z,6.05
2024-04-22T18:38:41.638Z,6.01
2024-04-22T18:41:11.116Z,6.04
2024-04-22T18:43:38.401Z,6.12
2024-04-22T18:46:05.155Z,6.04
2024-04-22T18:48:31.880Z,6.00
2024-04-22T18:50:59.839Z,6.18
2024-04-22T18:53:26.506Z,6.10
2024-04-22T18:55:53.345Z,5.96
2024-04-22T18:58:20.086Z,5.91
2024-04-22T19:00:50.233Z,5.88
2024-04-22T19:03:16.917Z,5.73
2024-04-22T19:05:43.500Z,5.91
2024-04-22T19:08:10.092Z,5.93
2024-04-22T19:10:39.033Z,5.93
2024-04-22T19:13:05.682Z,5.96
2024-04-22T19:15:32.179Z,5.85
2024-04-22T19:17:58.821Z,5.70
2024-04-22T19:20:25.406Z,5.71
2024-04-22T19:22:51.976Z,5.77
2024-04-22T19:25:18.625Z,5.79
2024-04-22T19:27:45.153Z,5.54
2024-04-22T19:30:11.778Z,5.55
2024-04-22T19:32:38.665Z,5.66
2024-04-22T19:35:05.463Z,5.55
2024-04-22T19:37:32.058Z,5.62
2024-04-22T19:39:58.562Z,5.51
2024-04-22T19:42:25.115Z,5.55
2024-04-22T19:44:55.444Z,5.56
2024-04-22T19:47:23.475Z,5.35
2024-04-22T19:49:50.236Z,5.47
2024-04-22T19:52:16.802Z,5.32
2024-04-22T19:54:43.290Z,5.33
2024-04-22T19:57:09.837Z,5.35
2024-04-22T19:59:38.443Z,5.44
2024-04-22T20:02:05.001Z,5.44
2024-04-22T20:04:31.691Z,5.38
2024-04-22T20:06:58.263Z,5.21
2024-04-22T20:09:24.814Z,5.22
2024-04-22T20:11:51.338Z,5.14
2024-04-22T20:14:17.876Z,5.23
2024-04-22T20:16:53.291Z,5.13
2024-04-22T20:19:20.264Z,5.17
2024-04-22T20:21:46.930Z,5.15
2024-04-22T20:24:15.128Z,5.01
2024-04-22T20:26:41.706Z,4.89
2024-04-22T20:29:08.799Z,5.07
2024-04-22T20:31:35.505Z,5.02
2024-04-22T20:34:02.311Z,4.90
2024-04-22T20:36:28.979Z,5.01
2024-04-22T20:38:56.903Z,4.96
2024-04-22T20:41:23.472Z,4.82
2024-04-22T20:43:50.174Z,4.90
2024-04-22T20:46:16.765Z,4.80
2024-04-22T20:48:43.483Z,4.91
2024-04-22T20:51:10.079Z,4.84
2024-04-22T20:53:36.661Z,4.89
2024-04-22T20:56:04.175Z,4.88
2024-04-22T20:58:35.311Z,4.57
2024-04-22T21:01:04.524Z,4.35
2024-04-22T21:03:31.844Z,4.45
2024-04-22T21:06:01.359Z,4.21
2024-04-22T21:08:28.509Z,4.21
2024-04-22T21:10:56.051Z,4.20
2024-04-22T21:13:22.792Z,4.20
2024-04-22T21:15:49.362Z,3.99
2024-04-22T21:18:18.944Z,3.87
2024-04-22T21:20:49.400Z,3.96
2024-04-22T21:23:16.411Z,3.89
2024-04-22T21:25:43.097Z,3.95
2024-04-22T21:28:09.683Z,3.84
2024-04-22T21:30:36.222Z,3.85
2024-04-22T21:33:18.230Z,3.59
2024-04-22T21:35:49.630Z,3.57
2024-04-22T21:38:17.436Z,3.54
2024-04-22T21:40:44.545Z,3.64
2024-04-22T21:43:11.375Z,3.37
2024-04-22T21:45:38.047Z,3.33
2024-04-22T21:48:05.406Z,3.36
2024-04-22T21:50:31.981Z,3.40
2024-04-22T21:52:58.603Z,3.46
2024-04-22T21:55:31.142Z,3.28
2024-04-22T21:58:35.287Z,3.19
2024-04-22T22:01:39.439Z,3.21
2024-04-22T22:04:43.985Z,3.36
2024-04-22T22:07:17.631Z,3.26
2024-04-22T22:09:49.226Z,3.31
2024-04-22T22:12:18.268Z,3.12
2024-04-22T22:14:46.608Z,3.08
2024-04-22T22:17:15.195Z,2.98
2024-04-22T22:19:43.522Z,3.13
2024-04-22T22:22:10.243Z,3.21
2024-04-22T22:24:41.247Z,3.19
2024-04-22T22:27:08.668Z,3.13
2024-04-22T22:29:35.434Z,3.09
2024-04-22T22:32:02.837Z,3.10
2024-04-22T22:34:30.263Z,2.91
2024-04-22T22:37:01.696Z,3.01
2024-04-22T22:39:28.241Z,2.99
2024-04-22T22:41:54.893Z,2.75
2024-04-22T22:44:22.772Z,2.67
2024-04-22T22:46:49.504Z,2.57
2024-04-22T22:49:18.198Z,2.67
2024-04-22T22:51:44.899Z,2.75
2024-04-22T22:54:11.377Z,2.72
2024-04-22T22:56:37.875Z,2.55
2024-04-22T22:59:04.439Z,2.69
2024-04-22T23:01:31.100Z,2.61
2024-04-22T23:03:57.690Z,2.66
2024-04-22T23:06:24.276Z,2.35
2024-04-22T23:08:50.802Z,2.39
2024-04-22T23:11:17.475Z,2.29
2024-04-22T23:13:44.213Z,2.44
2024-04-22T23:16:13.289Z,2.43
2024-04-22T23:18:39.918Z,2.45
2024-04-22T23:21:06.497Z,2.54
2024-04-22T23:23:33.021Z,2.38
2024-04-22T23:25:59.588Z,2.02
2024-04-22T23:28:26.189Z,2.10
2024-04-22T23:30:52.715Z,2.06
2024-04-22T23:33:19.296Z,2.22
2024-04-22T23:35:46.011Z,2.23
2024-04-22T23:38:12.546Z,2.20
2024-04-22T23:40:39.135Z,1.93
2024-04-22T23:43:05.669Z,1.95
2024-04-22T23:45:33.146Z,2.03
2024-04-22T23:47:59.881Z,1.95
2024-04-22T23:50:26.437Z,1.93
2024-04-22T23:52:53.399Z,1.82
2024-04-22T23:55:19.910Z,1.85
2024-04-22T23:57:46.443Z,1.86
